Time;durP1;ratioP1;P1;durP2;ratioP2;P2;SDS_P1;SDS_P2;PMS_P1;PMS_P2;Temp;Humidity;BMP_temperature;BMP_pressure;BME280_temperature;BME280_humidity;BME280_pressure;Samples;Min_cycle;Max_cycle;Signal;HPM_P1;HPM_P2
2021/04/16 00:00:38;;;;;;;11.00;5.95;;;;;;;0.39;90.46;96755.30;1708860;83;21146;-84
2021/04/16 00:03:09;;;;;;;10.03;5.60;;;;;;;0.39;90.55;96748.78;1699881;83;21136;-84
2021/04/16 00:05:39;;;;;;;10.57;6.07;;;;;;;0.41;90.45;96755.09;1667651;84;21532;-84
2021/04/16 00:08:11;;;;;;;8.48;5.25;;;;;;;0.42;90.49;96757.98;1699924;84;21355;-84
2021/04/16 00:10:43;;;;;;;8.03;4.37;;;;;;;0.42;90.50;96753.57;1707399;84;21139;-84
2021/04/16 00:13:15;;;;;;;13.05;6.97;;;;;;;0.42;90.49;96743.14;1707920;84;21206;-84
2021/04/16 00:15:44;;;;;;;8.93;5.03;;;;;;;0.43;90.45;96749.98;1704169;84;21096;-84
2021/04/16 00:18:15;;;;;;;9.48;5.45;;;;;;;0.43;90.49;96753.09;1721691;81;21167;-85
2021/04/16 00:20:43;;;;;;;7.97;5.22;;;;;;;0.42;90.56;96745.75;1746236;81;21294;-84
2021/04/16 00:23:11;;;;;;;5.87;3.55;;;;;;;0.41;90.52;96740.23;1750698;81;21600;-85
2021/04/16 00:25:38;;;;;;;7.75;5.17;;;;;;;0.40;90.62;96745.16;1747917;81;21654;-85
2021/04/16 00:28:09;;;;;;;9.88;5.70;;;;;;;0.39;90.66;96743.56;1737082;81;21685;-84
2021/04/16 00:30:41;;;;;;;7.40;4.45;;;;;;;0.39;90.58;96744.88;1732074;82;21151;-85
2021/04/16 00:33:10;;;;;;;6.60;3.85;;;;;;;0.39;90.61;96742.77;1754908;82;21127;-84
2021/04/16 00:35:38;;;;;;;9.95;6.50;;;;;;;0.39;90.71;96743.56;1746740;82;21150;-84
2021/04/16 00:38:07;;;;;;;7.58;4.78;;;;;;;0.38;90.64;96745.88;1751700;82;21096;-84
2021/04/16 00:40:43;;;;;;;7.53;5.33;;;;;;;0.39;90.67;96738.86;1741684;81;21146;-84
2021/04/16 00:43:14;;;;;;;6.75;3.70;;;;;;;0.39;90.59;96740.95;1753249;81;21184;-85
2021/04/16 00:45:41;;;;;;;12.43;6.12;;;;;;;0.40;90.63;96744.36;1746225;82;21099;-84
2021/04/16 00:48:14;;;;;;;4.62;3.27;;;;;;;0.40;90.40;96741.25;1752774;81;21112;-84
2021/04/16 00:50:49;;;;;;;8.70;4.53;;;;;;;0.40;90.40;96741.25;1725390;82;21163;-84
2021/04/16 00:53:19;;;;;;;8.33;5.25;;;;;;;0.41;90.51;96748.06;1731540;81;21112;-85
2021/04/16 00:55:47;;;;;;;8.33;4.67;;;;;;;0.43;90.39;96746.58;1748051;82;21123;-84
2021/04/16 00:58:16;;;;;;;9.25;5.20;;;;;;;0.43;90.36;96751.28;1745928;82;21514;-85
2021/04/16 01:00:45;;;;;;;6.55;4.25;;;;;;;0.43;90.35;96753.09;1732563;82;21152;-84
2021/04/16 01:03:12;;;;;;;7.22;4.15;;;;;;;0.43;90.34;96751.28;1737302;82;21520;-84
2021/04/16 01:05:39;;;;;;;8.30;4.83;;;;;;;0.43;90.32;96742.16;1740422;81;21141;-84
2021/04/16 01:08:07;;;;;;;7.65;4.33;;;;;;;0.43;90.31;96752.59;1752147;81;21525;-84
2021/04/16 01:10:34;;;;;;;6.87;3.65;;;;;;;0.42;90.28;96742.34;1718257;81;21205;-84
2021/04/16 01:13:02;;;;;;;5.90;3.40;;;;;;;0.42;90.38;96746.25;1705341;82;21139;-84
2021/04/16 01:15:35;;;;;;;6.97;4.50;;;;;;;0.40;90.37;96746.47;1725521;83;21104;-84
2021/04/16 01:20:59;;;;;;;10.18;5.35;;;;;;;0.45;90.29;96747.95;1902703;74;22877;-84
2021/04/16 01:23:50;;;;;;;11.20;6.12;;;;;;;0.39;90.24;96743.56;1883823;75;21088;-84
2021/04/16 01:26:25;;;;;;;8.80;5.12;;;;;;;0.41;90.19;96742.05;1899392;75;21673;-84
2021/04/16 01:28:54;;;;;;;10.63;5.20;;;;;;;0.40;90.28;96737.34;1882265;74;21111;-84
2021/04/16 01:31:25;;;;;;;7.58;4.97;;;;;;;0.39;90.21;96734.95;1877537;75;21081;-84
2021/04/16 01:33:53;;;;;;;11.65;5.03;;;;;;;0.38;90.17;96736.75;1891361;75;21073;-85
2021/04/16 01:36:31;;;;;;;10.93;5.17;;;;;;;0.39;90.18;96738.35;1892914;75;21092;-84
2021/04/16 01:39:00;;;;;;;11.40;5.83;;;;;;;0.40;90.06;96737.34;1896107;74;21182;-84
2021/04/16 01:41:30;;;;;;;6.97;4.95;;;;;;;0.41;90.02;96729.01;1885199;75;21529;-84
2021/04/16 01:44:02;;;;;;;8.35;5.15;;;;;;;0.42;89.99;96731.91;1886793;75;21096;-84
2021/04/16 01:46:50;;;;;;;9.03;5.00;;;;;;;0.42;89.97;96735.31;1889431;75;21107;-84
2021/04/16 01:49:18;;;;;;;9.13;5.40;;;;;;;0.41;89.98;96727.20;1892672;75;21111;-84
2021/04/16 01:51:47;;;;;;;10.20;5.83;;;;;;;0.40;89.92;96721.69;1886436;75;21063;-84
2021/04/16 01:54:19;;;;;;;9.93;5.08;;;;;;;0.40;89.89;96726.91;1887563;75;21099;-84
2021/04/16 01:56:52;;;;;;;7.92;4.85;;;;;;;0.40;89.88;96724.81;1882862;75;21084;-84
2021/04/16 01:59:24;;;;;;;8.05;3.90;;;;;;;0.43;89.80;96721.30;1898267;75;21090;-84
2021/04/16 02:01:52;;;;;;;9.33;5.70;;;;;;;0.41;89.90;96720.68;1882441;75;21452;-84
2021/04/16 02:04:21;;;;;;;8.40;4.78;;;;;;;0.42;89.79;96719.67;1876482;75;21132;-84
2021/04/16 02:06:50;;;;;;;7.50;4.12;;;;;;;0.42;89.77;96714.45;1879694;75;21474;-84
2021/04/16 02:09:22;;;;;;;9.65;4.55;;;;;;;0.43;89.67;96712.67;1891266;74;21104;-84
2021/04/16 02:11:50;;;;;;;7.70;4.45;;;;;;;0.44;89.65;96711.66;1887685;75;21511;-84
2021/04/16 02:14:25;;;;;;;5.92;3.33;;;;;;;0.44;89.67;96720.28;1859614;75;21127;-84
2021/04/16 02:16:57;;;;;;;9.45;5.50;;;;;;;0.43;89.81;96712.17;1879829;75;21052;-84
2021/04/16 02:19:24;;;;;;;9.38;4.47;;;;;;;0.40;89.92;96719.08;1886861;74;21118;-84
2021/04/16 02:21:51;;;;;;;8.25;4.37;;;;;;;0.40;89.89;96715.17;1908087;75;21063;-84
2021/04/16 02:24:20;;;;;;;8.78;5.08;;;;;;;0.40;90.00;96715.68;1905731;75;21436;-85
2021/04/16 02:26:48;;;;;;;11.65;6.17;;;;;;;0.39;90.14;96710.97;1879647;75;21252;-84
2021/04/16 02:29:18;;;;;;;10.25;6.83;;;;;;;0.36;90.20;96707.48;1888854;74;21589;-84
2021/04/16 02:31:46;;;;;;;11.53;6.17;;;;;;;0.33;90.39;96702.70;1902730;75;21082;-84
2021/04/16 02:34:20;;;;;;;8.75;4.05;;;;;;;0.31;90.62;96700.81;1905100;75;21106;-85
2021/04/16 02:36:51;;;;;;;12.63;5.72;;;;;;;0.29;90.82;96701.53;1902147;75;21589;-85
2021/04/16 02:39:18;;;;;;;;;;;;;;;0.27;90.74;96710.05;1909037;74;21458;-85
2021/04/16 02:41:45;;;;;;;10.10;5.92;;;;;;;0.28;90.84;96705.12;1902591;75;20333;-85
2021/04/16 02:44:12;;;;;;;14.33;6.60;;;;;;;0.26;90.79;96705.34;1891155;75;21435;-85
2021/04/16 02:46:40;;;;;;;8.98;4.45;;;;;;;0.26;90.86;96708.45;1904700;75;21096;-85
2021/04/16 02:49:07;;;;;;;11.78;5.80;;;;;;;0.26;91.17;96691.50;1896972;74;21094;-85
2021/04/16 02:51:35;;;;;;;7.22;3.60;;;;;;;0.24;91.29;96693.52;1891332;75;21066;-85
2021/04/16 02:54:03;;;;;;;12.98;7.53;;;;;;;0.23;91.38;96692.72;1904486;75;21149;-85
2021/04/16 02:56:31;;;;;;;11.53;6.30;;;;;;;0.22;91.29;96702.06;1891504;75;21094;-85
2021/04/16 02:58:58;;;;;;;11.97;6.33;;;;;;;0.21;91.45;96703.88;1898673;74;21154;-85
2021/04/16 03:01:26;;;;;;;11.93;6.55;;;;;;;0.21;91.43;96702.57;1896395;75;21114;-84
2021/04/16 03:03:54;;;;;;;13.38;6.40;;;;;;;0.20;91.46;96701.48;1904504;75;21453;-85
2021/04/16 03:06:23;;;;;;;9.50;5.55;;;;;;;0.20;91.53;96707.49;1901664;75;21125;-85
2021/04/16 03:08:55;;;;;;;10.30;5.17;;;;;;;0.20;91.55;96709.30;1895960;75;21171;-84
2021/04/16 03:11:24;;;;;;;9.55;6.40;;;;;;;0.19;91.65;96707.20;1892327;75;21450;-85
2021/04/16 03:13:52;;;;;;;7.25;4.83;;;;;;;0.17;91.65;96710.52;1910863;75;21065;-85
2021/04/16 03:16:22;;;;;;;12.05;5.47;;;;;;;0.17;91.81;96705.81;1905266;75;21480;-85
2021/04/16 03:18:50;;;;;;;7.67;4.60;;;;;;;0.05;91.96;96684.03;1901157;74;21234;-85
2021/04/16 03:21:18;;;;;;;12.90;6.87;;;;;;;0.14;92.01;96697.09;1885114;75;21108;-85
2021/04/16 03:23:45;;;;;;;10.70;7.10;;;;;;;0.12;91.98;96692.59;1893539;75;21098;-84
2021/04/16 03:26:12;;;;;;;7.35;3.47;;;;;;;0.11;92.09;96693.60;1889234;75;21080;-85
2021/04/16 03:28:39;;;;;;;7.28;3.65;;;;;;;0.12;92.15;96699.11;1890037;74;21298;-85
2021/04/16 03:31:07;;;;;;;9.20;4.95;;;;;;;0.12;92.23;96695.20;1885184;75;21610;-85
2021/04/16 03:33:34;;;;;;;12.05;6.97;;;;;;;0.11;92.23;96696.21;1896351;75;21609;-85
2021/04/16 03:36:02;;;;;;;6.40;4.05;;;;;;;0.10;92.22;96694.61;1892336;75;21261;-84
2021/04/16 03:38:29;;;;;;;9.68;5.67;;;;;;;0.09;92.21;96695.63;1890859;75;21568;-85
2021/04/16 03:40:56;;;;;;;10.43;4.62;;;;;;;0.09;92.14;96698.23;1898917;74;21642;-85
2021/04/16 03:43:23;;;;;;;7.08;4.28;;;;;;;0.09;92.25;96696.42;1879961;75;21124;-85
2021/04/16 03:45:50;;;;;;;7.17;4.17;;;;;;;0.09;92.31;96700.33;1894492;75;21258;-84
2021/04/16 03:48:17;;;;;;;7.92;3.40;;;;;;;0.09;92.30;96696.93;1888146;75;21101;-85
2021/04/16 03:50:45;;;;;;;6.40;4.20;;;;;;;0.10;92.31;96695.41;1892683;74;21114;-85
2021/04/16 03:53:12;;;;;;;4.25;2.60;;;;;;;0.08;92.30;96694.83;1867866;75;21280;-85
2021/04/16 03:55:40;;;;;;;11.60;5.50;;;;;;;0.10;92.24;96696.72;1876135;75;21092;-85
2021/04/16 03:58:09;;;;;;;5.60;3.23;;;;;;;0.10;92.10;96705.04;1897271;75;21601;-85
2021/04/16 04:00:40;;;;;;;5.12;2.95;;;;;;;0.11;92.12;96704.83;1900746;74;21122;-85
2021/04/16 04:03:11;;;;;;;3.95;2.70;;;;;;;0.11;92.12;96698.81;1891534;75;21131;-85
2021/04/16 04:05:38;;;;;;;4.60;3.08;;;;;;;0.09;92.23;96700.33;1892811;75;21239;-85
2021/04/16 04:08:07;;;;;;;4.85;2.85;;;;;;;0.09;92.25;96698.23;1881608;75;21498;-85
2021/04/16 04:10:36;;;;;;;3.40;2.20;;;;;;;0.08;92.21;96701.84;1881310;74;21116;-85
2021/04/16 04:13:08;;;;;;;4.83;2.73;;;;;;;0.09;92.20;96707.36;1885440;75;21458;-85
2021/04/16 04:15:36;;;;;;;4.00;2.75;;;;;;;0.10;92.15;96699.83;1894835;75;21124;-85
2021/04/16 04:18:05;;;;;;;5.65;3.35;;;;;;;0.10;92.19;96708.95;1870428;75;21091;-85
2021/04/16 04:20:36;;;;;;;7.00;3.35;;;;;;;0.10;92.17;96708.95;1868758;74;21180;-85
2021/04/16 04:23:04;;;;;;;;;;;;;;;0.10;92.08;96712.36;1898623;75;21444;-85
2021/04/16 04:25:33;;;;;;;5.42;2.47;;;;;;;0.11;92.11;96706.64;1896095;75;20112;-85
2021/04/16 04:28:04;;;;;;;8.13;2.37;;;;;;;0.11;92.06;96700.12;1900046;75;21080;-85
2021/04/16 04:30:35;;;;;;;3.80;2.65;;;;;;;0.12;92.05;96703.02;1898307;74;21115;-85
2021/04/16 04:33:04;;;;;;;4.90;3.10;;;;;;;0.10;92.09;96717.56;1894972;75;21470;-85
2021/04/16 04:35:32;;;;;;;3.60;2.60;;;;;;;0.10;92.23;96716.27;1880316;75;21102;-85
2021/04/16 04:37:59;;;;;;;4.90;2.43;;;;;;;0.11;92.23;96720.97;1895161;75;21472;-85
2021/04/16 04:40:28;;;;;;;3.87;1.92;;;;;;;0.12;92.18;96708.23;1892484;74;21487;-85
2021/04/16 04:42:56;;;;;;;3.37;2.22;;;;;;;0.15;92.21;96720.87;1897908;75;21087;-85
2021/04/16 04:45:24;;;;;;;7.87;3.45;;;;;;;0.16;92.13;96713.34;1830526;78;21140;-85
2021/04/16 04:47:52;;;;;;;5.30;3.08;;;;;;;0.19;92.09;96722.05;1820689;78;21149;-85
2021/04/16 04:50:21;;;;;;;4.97;3.02;;;;;;;0.21;92.01;96710.89;1826437;77;21118;-85
2021/04/16 04:52:49;;;;;;;5.17;2.77;;;;;;;0.24;92.04;96719.59;1802778;77;21096;-85
2021/04/16 04:55:21;;;;;;;2.35;1.75;;;;;;;0.25;91.99;96721.19;1791484;78;21687;-85
2021/04/16 04:57:48;;;;;;;4.92;2.90;;;;;;;0.25;91.98;96712.86;1836050;77;21062;-85
2021/04/16 05:00:18;;;;;;;4.50;2.80;;;;;;;0.26;91.95;96711.05;1825679;77;21108;-85
2021/04/16 05:02:45;;;;;;;3.87;2.40;;;;;;;0.27;91.92;96719.97;1830576;78;21107;-85
2021/04/16 05:05:16;;;;;;;3.65;2.87;;;;;;;0.27;91.81;96724.37;1818386;78;21472;-85
2021/04/16 05:07:43;;;;;;;2.83;2.05;;;;;;;0.28;91.77;96718.16;1817772;78;21595;-85
2021/04/16 05:10:12;;;;;;;4.20;2.42;;;;;;;0.32;91.50;96728.48;1868314;75;21463;-85
2021/04/16 05:12:39;;;;;;;7.00;3.20;;;;;;;0.32;91.50;96728.48;1871316;75;21274;-85
2021/04/16 05:15:08;;;;;;;2.80;1.72;;;;;;;0.34;91.48;96732.98;1870202;75;21617;-85
2021/04/16 05:17:36;;;;;;;6.25;2.90;;;;;;;0.34;91.44;96728.27;1824528;78;21135;-84
2021/04/16 05:20:06;;;;;;;5.40;2.67;;;;;;;0.34;91.43;96724.36;1841077;77;21127;-85
2021/04/16 05:22:33;;;;;;;5.75;2.67;;;;;;;0.36;91.39;96721.83;1838240;78;21131;-85
2021/04/16 05:25:00;;;;;;;5.53;2.72;;;;;;;0.36;91.38;96715.31;1828867;78;21465;-85
2021/04/16 05:27:29;;;;;;;5.35;3.40;;;;;;;0.35;91.35;96733.27;1838290;78;21120;-85
2021/04/16 05:29:56;;;;;;;5.70;2.58;;;;;;;0.29;91.47;96711.96;1841579;76;21165;-85
2021/04/16 05:32:23;;;;;;;3.37;1.90;;;;;;;0.40;91.38;96716.98;1826232;78;21094;-84
2021/04/16 05:34:50;;;;;;;5.10;2.87;;;;;;;0.41;91.32;96723.29;1842147;78;21460;-84
2021/04/16 05:37:18;;;;;;;3.75;2.45;;;;;;;0.41;91.26;96728.50;1860792;75;21443;-84
2021/04/16 05:39:45;;;;;;;5.28;3.00;;;;;;;0.44;91.12;96716.87;1835487;77;21477;-84
2021/04/16 05:42:12;;;;;;;4.65;3.02;;;;;;;0.45;91.05;96720.58;1858837;75;21110;-85
2021/04/16 05:44:39;;;;;;;3.02;2.05;;;;;;;0.45;91.05;96727.09;1845958;75;21614;-84
2021/04/16 05:47:07;;;;;;;3.72;2.30;;;;;;;0.45;91.04;96719.27;1868409;75;21100;-84
2021/04/16 05:49:34;;;;;;;4.80;3.05;;;;;;;0.47;91.05;96726.88;1868774;75;21134;-85
2021/04/16 05:52:02;;;;;;;3.00;2.20;;;;;;;0.45;91.06;96719.78;1870777;75;21467;-85
2021/04/16 05:54:29;;;;;;;3.17;2.27;;;;;;;0.47;91.12;96722.46;1862877;75;21126;-84
2021/04/16 05:56:56;;;;;;;3.05;1.95;;;;;;;0.47;91.11;96724.27;1882151;75;21571;-84
2021/04/16 05:59:23;;;;;;;5.35;2.80;;;;;;;0.47;91.09;96717.75;1886108;75;21083;-84
2021/04/16 06:01:51;;;;;;;4.92;2.55;;;;;;;0.46;91.34;96718.26;1867775;75;21101;-84
2021/04/16 06:04:22;;;;;;;5.33;2.72;;;;;;;0.48;91.26;96721.45;1863845;75;21065;-84
2021/04/16 06:06:49;;;;;;;2.85;2.10;;;;;;;0.48;91.26;96721.45;1850773;77;21483;-84
2021/04/16 06:09:17;;;;;;;4.42;2.47;;;;;;;0.52;91.12;96718.70;1849471;75;21264;-84
2021/04/16 06:11:44;;;;;;;5.35;2.85;;;;;;;0.46;91.04;96693.48;1882583;75;21078;-84
2021/04/16 06:14:12;;;;;;;5.33;3.20;;;;;;;0.46;91.04;96693.48;1856677;77;21124;-84
2021/04/16 06:16:41;;;;;;;3.77;1.92;;;;;;;0.52;91.00;96696.53;1836740;78;21104;-84
2021/04/16 06:19:08;;;;;;;4.08;2.72;;;;;;;0.62;90.93;96701.79;1837622;77;21484;-84
2021/04/16 06:21:35;;;;;;;3.72;2.72;;;;;;;0.54;90.86;96699.72;1828361;78;21499;-84
2021/04/16 06:24:02;;;;;;;4.67;2.87;;;;;;;0.57;90.63;96699.33;1825688;78;21702;-84
2021/04/16 06:26:30;;;;;;;3.17;2.83;;;;;;;0.69;90.61;96721.58;1869857;76;21623;-84
2021/04/16 06:29:03;;;;;;;5.67;3.33;;;;;;;0.74;90.42;96722.27;1859160;75;21990;-84
2021/04/16 06:31:27;;;;;;;4.37;2.60;;;;;;;0.73;90.37;96715.45;1847650;77;21548;-84
2021/04/16 06:33:54;;;;;;;2.58;1.67;;;;;;;0.74;90.24;96717.05;1844968;76;21676;-85
2021/04/16 06:36:22;;;;;;;5.55;2.95;;;;;;;0.70;90.16;96714.05;1872514;75;21239;-84
2021/04/16 06:38:49;;;;;;;6.03;2.50;;;;;;;0.69;90.21;96710.35;1853599;76;21637;-84
2021/04/16 06:41:30;;;;;;;3.58;2.08;;;;;;;0.70;90.10;96708.83;1858238;76;21486;-84
2021/04/16 06:44:21;;;;;;;2.70;1.65;;;;;;;0.69;90.09;96712.45;1828291;76;21109;-84
2021/04/16 06:46:55;;;;;;;;;;;;;;;0.74;90.04;96711.83;1863834;76;21114;-84
2021/04/16 06:49:27;;;;;;;4.37;2.20;;;;;;;0.75;89.85;96710.81;1834085;76;20117;-84
2021/04/16 06:52:20;;;;;;;2.65;2.08;;;;;;;0.79;89.89;96701.55;1828160;78;21531;-84
2021/04/16 06:54:53;;;;;;;3.90;2.25;;;;;;;0.82;89.81;96703.21;1825241;77;21287;-85
2021/04/16 07:00:22;;;;;;;7.37;2.65;;;;;;;0.99;89.58;96693.56;1757112;79;23334;-83
2021/04/16 07:02:59;;;;;;;4.95;2.98;;;;;;;0.97;89.39;96682.51;1712344;82;21201;-84
2021/04/16 07:05:47;;;;;;;3.27;1.95;;;;;;;0.95;89.13;96702.30;1726656;83;21474;-84
2021/04/16 07:08:37;;;;;;;4.30;2.40;;;;;;;0.93;89.02;96699.62;1718918;83;21150;-84
2021/04/16 07:14:03;;;;;;;7.00;2.75;;;;;;;0.99;89.25;96706.10;1813030;79;23138;-84
2021/04/16 07:16:34;;;;;;;3.72;2.30;;;;;;;0.89;89.49;96718.83;1771844;79;21362;-83
2021/04/16 07:19:09;;;;;;;3.77;2.02;;;;;;;0.89;89.49;96718.83;1746720;81;21146;-83
2021/04/16 07:21:37;;;;;;;2.98;1.70;;;;;;;0.88;89.43;96724.56;1751764;81;21285;-83
2021/04/16 07:24:07;;;;;;;3.12;2.37;;;;;;;0.91;89.70;96715.50;1759700;81;21529;-83
2021/04/16 07:26:39;;;;;;;7.00;3.30;;;;;;;0.96;89.71;96720.86;1760149;81;21554;-83
2021/04/16 07:29:10;;;;;;;4.67;2.65;;;;;;;0.96;89.68;96715.64;1748878;81;21534;-83
2021/04/16 07:31:49;;;;;;;6.97;2.95;;;;;;;0.95;89.64;96722.38;1754085;81;21750;-83
2021/04/16 07:34:34;;;;;;;4.50;3.02;;;;;;;0.97;89.71;96725.58;1759665;81;21522;-84
2021/04/16 07:37:18;;;;;;;5.08;3.22;;;;;;;0.95;89.71;96703.61;1758232;81;21470;-84
2021/04/16 07:39:51;;;;;;;4.35;2.72;;;;;;;0.95;89.71;96703.61;1736208;81;21161;-84
2021/04/16 07:42:24;;;;;;;5.65;3.00;;;;;;;1.08;89.72;96718.35;1735542;81;21192;-84
2021/04/16 07:45:33;;;;;;;6.53;3.22;;;;;;;1.09;89.71;96716.83;1761343;81;21331;-84
2021/04/16 07:48:33;;;;;;;5.25;2.92;;;;;;;1.08;89.72;96721.76;1745341;81;21197;-84
2021/04/16 07:51:06;;;;;;;1.98;1.72;;;;;;;1.06;89.69;96721.18;1755318;81;21561;-85
2021/04/16 07:53:49;;;;;;;6.08;3.10;;;;;;;1.05;89.73;96718.28;1725667;82;21152;-85
2021/04/16 07:56:22;;;;;;;5.47;3.02;;;;;;;1.06;89.75;96728.22;1735871;81;21626;-84
2021/04/16 07:59:10;;;;;;;4.53;2.95;;;;;;;1.06;89.71;96726.40;1709012;82;21187;-85
2021/04/16 08:01:40;;;;;;;2.52;1.80;;;;;;;1.04;89.83;96724.52;1705316;84;21231;-85
2021/04/16 08:04:22;;;;;;;4.42;3.10;;;;;;;1.08;89.82;96721.76;1709204;83;21521;-85
2021/04/16 08:06:54;;;;;;;4.25;2.83;;;;;;;1.10;89.80;96723.64;1708058;83;21143;-85
2021/04/16 08:09:33;;;;;;;6.10;3.60;;;;;;;1.14;89.81;96720.92;1699111;84;21104;-85
2021/04/16 08:12:15;;;;;;;6.30;3.60;;;;;;;1.14;89.76;96731.36;1698162;84;21217;-85
2021/04/16 08:15:03;;;;;;;;;;;;;;;;;;;;;
2021/04/16 08:17:35;;;;;;;3.30;2.02;;;;;;;1.23;89.67;96714.89;1858924;76;22603;-84
2021/04/16 08:20:29;;;;;;;5.25;3.08;;;;;;;1.16;89.71;96709.75;1850456;76;21129;-84
2021/04/16 08:22:57;;;;;;;3.77;2.25;;;;;;;1.14;89.78;96709.17;1840091;77;21245;-85
2021/04/16 08:25:39;;;;;;;4.03;2.58;;;;;;;1.14;89.84;96710.47;1841255;77;21120;-85
2021/04/16 08:28:11;;;;;;;2.80;1.75;;;;;;;1.06;89.99;96698.98;1846657;77;21095;-85
2021/04/16 08:30:53;;;;;;;4.55;2.47;;;;;;;1.06;89.99;96698.98;1854265;76;21542;-85
2021/04/16 08:33:46;;;;;;;6.28;2.45;;;;;;;1.16;89.90;96711.56;1841299;77;21101;-85
2021/04/16 08:36:31;;;;;;;3.45;2.67;;;;;;;1.16;89.91;96718.89;1855715;76;21255;-85
2021/04/16 08:39:34;;;;;;;6.45;3.17;;;;;;;1.16;89.95;96718.89;1847336;76;21264;-84
2021/04/16 08:42:17;;;;;;;4.22;2.85;;;;;;;1.18;90.04;96724.69;1836419;77;21677;-84
2021/04/16 08:44:56;;;;;;;4.92;2.80;;;;;;;1.24;89.97;96730.05;1840182;77;21099;-84
2021/04/16 08:47:34;;;;;;;4.95;2.72;;;;;;;1.25;89.82;96725.11;1832814;77;21528;-84
2021/04/16 08:50:05;;;;;;;2.42;1.62;;;;;;;1.26;89.81;96725.41;1826196;77;21144;-84
2021/04/16 08:52:46;;;;;;;3.37;1.98;;;;;;;1.30;89.73;96723.47;1793441;80;21145;-84
2021/04/16 08:55:44;;;;;;;4.92;3.33;;;;;;;1.29;89.54;96723.69;1795096;79;21099;-84
2021/04/16 08:58:33;;;;;;;5.47;3.60;;;;;;;1.32;89.55;96725.86;1773661;80;21241;-85
2021/04/16 09:01:17;;;;;;;2.65;1.42;;;;;;;1.39;89.42;96726.58;1797458;79;21089;-85
2021/04/16 09:03:54;;;;;;;3.87;2.00;;;;;;;1.38;89.06;96721.06;1762240;79;21249;-85
2021/04/16 09:06:36;;;;;;;3.98;2.08;;;;;;;1.38;89.00;96726.29;1769814;79;21238;-85
2021/04/16 09:09:07;;;;;;;6.00;2.98;;;;;;;1.41;88.93;96732.41;1776800;79;21162;-85
2021/04/16 09:11:49;;;;;;;4.33;2.58;;;;;;;1.44;88.87;96731.97;1776240;80;21566;-85
2021/04/16 09:14:34;;;;;;;3.67;2.00;;;;;;;1.48;88.75;96735.73;1783549;80;21096;-85
2021/04/16 09:17:07;;;;;;;3.15;1.47;;;;;;;1.47;88.36;96727.61;1799190;79;21110;-85
2021/04/16 09:19:39;;;;;;;2.20;1.63;;;;;;;1.49;88.24;96730.80;1789749;79;21119;-85
2021/04/16 09:22:18;;;;;;;2.47;1.45;;;;;;;1.51;87.97;96726.15;1770435;80;21469;-85
2021/04/16 09:27:40;;;;;;;5.45;1.75;;;;;;;1.63;87.43;96721.80;1846311;76;22591;-84
2021/04/16 09:30:13;;;;;;;3.17;2.20;;;;;;;1.63;87.20;96729.64;1846826;76;21114;-84
2021/04/16 09:32:54;;;;;;;2.42;1.60;;;;;;;1.62;87.27;96721.52;1801269;80;21091;-84
2021/04/16 09:35:33;;;;;;;5.00;2.65;;;;;;;1.68;87.14;96728.97;1782419;80;21238;-85
2021/04/16 09:38:30;;;;;;;5.05;2.27;;;;;;;1.67;86.77;96733.41;1775986;80;21095;-85
2021/04/16 09:41:26;;;;;;;2.25;1.35;;;;;;;1.70;86.95;96732.20;1787414;80;21115;-84
2021/04/16 09:43:58;;;;;;;3.70;2.42;;;;;;;1.73;86.88;96736.47;1799554;80;21080;-84
2021/04/16 09:46:38;;;;;;;2.58;1.15;;;;;;;1.82;86.84;96739.56;1787454;79;21515;-84
2021/04/16 09:49:25;;;;;;;1.98;1.52;;;;;;;1.88;86.57;96727.45;1764548;79;21150;-85
2021/04/16 09:51:57;;;;;;;2.42;1.65;;;;;;;1.85;86.04;96742.27;1792082;79;21111;-86
2021/04/16 09:54:40;;;;;;;3.95;2.58;;;;;;;1.78;85.80;96740.52;1792501;80;21080;-85
2021/04/16 09:57:14;;;;;;;5.62;3.05;;;;;;;1.74;86.04;96740.67;1783355;80;21108;-84
2021/04/16 09:59:44;;;;;;;4.97;2.67;;;;;;;1.76;86.32;96736.53;1784113;80;21146;-83
2021/04/16 10:02:26;;;;;;;5.03;1.60;;;;;;;1.79;86.45;96732.97;1781280;79;21135;-84
2021/04/16 10:05:15;;;;;;;9.58;2.80;;;;;;;1.87;86.43;96728.47;1787491;79;21111;-84
2021/04/16 10:07:53;;;;;;;3.47;2.37;;;;;;;1.91;86.33;96732.23;1790794;79;21481;-84
2021/04/16 10:10:42;;;;;;;6.33;3.67;;;;;;;1.92;86.34;96735.13;1785458;79;21119;-84
2021/04/16 10:13:25;;;;;;;2.50;1.40;;;;;;;1.91;86.33;96733.54;1776018;79;21244;-84
2021/04/16 10:15:56;;;;;;;3.47;2.02;;;;;;;1.90;86.17;96722.80;1797216;79;21550;-84
2021/04/16 10:18:39;;;;;;;4.03;1.92;;;;;;;1.93;86.24;96736.22;1794255;79;21127;-84
2021/04/16 10:21:20;;;;;;;4.35;2.40;;;;;;;2.00;86.24;96731.72;1747095;79;21221;-84
2021/04/16 10:24:02;;;;;;;3.67;2.67;;;;;;;2.06;86.03;96731.34;1782152;79;21076;-84
2021/04/16 12:38:43;;;;;;;4.83;3.58;;;;;;;2.65;85.18;96792.00;1756618;80;21107;-84
2021/04/16 12:41:20;;;;;;;6.08;3.90;;;;;;;2.69;85.33;96781.91;1775892;79;21119;-84
2021/04/16 12:43:49;;;;;;;7.47;3.55;;;;;;;2.70;85.32;96786.63;1810854;78;21482;-84
2021/04/16 12:46:21;;;;;;;4.12;2.60;;;;;;;2.61;84.96;96786.94;1762719;80;21154;-84
2021/04/16 12:48:49;;;;;;;5.37;2.47;;;;;;;2.42;84.98;96779.37;1765290;80;21586;-84
2021/04/16 12:51:18;;;;;;;3.98;2.67;;;;;;;2.36;85.46;96788.38;1775787;80;21247;-84
2021/04/16 12:53:45;;;;;;;4.45;2.60;;;;;;;2.42;85.59;96782.78;1762194;80;21115;-85
2021/04/16 12:56:38;;;;;;;3.45;2.40;;;;;;;2.36;85.44;96784.45;1765915;80;21104;-84
2021/04/16 12:59:13;;;;;;;5.33;3.00;;;;;;;2.31;85.50;96782.22;1805113;78;21130;-85
2021/04/16 13:01:46;;;;;;;4.35;2.75;;;;;;;2.21;85.62;96785.35;1790738;79;21249;-84
2021/04/16 13:04:16;;;;;;;5.20;2.85;;;;;;;2.21;85.79;96782.73;1794773;79;21140;-83
2021/04/16 13:06:47;;;;;;;4.58;2.80;;;;;;;2.23;85.89;96787.23;1789995;79;21165;-83
2021/04/16 13:09:20;;;;;;;4.03;2.72;;;;;;;2.26;85.92;96782.89;1800295;79;21119;-84
2021/04/16 13:11:52;;;;;;;6.22;2.70;;;;;;;2.31;86.04;96774.38;1795745;79;21241;-83
2021/04/16 13:14:20;;;;;;;2.92;1.75;;;;;;;2.25;86.01;96778.69;1784629;80;21506;-83
2021/04/16 13:16:47;;;;;;;3.33;2.83;;;;;;;2.20;86.06;96768.58;1786582;79;21162;-83
2021/04/16 13:19:29;;;;;;;3.52;3.00;;;;;;;2.15;86.08;96778.41;1795481;78;21151;-84
2021/04/16 13:22:01;;;;;;;4.92;3.05;;;;;;;2.13;86.24;96771.29;1777656;79;21106;-84
2021/04/16 13:24:28;;;;;;;4.72;2.72;;;;;;;2.21;86.37;96768.35;1791661;79;21292;-84
2021/04/16 13:26:56;;;;;;;3.75;2.58;;;;;;;2.24;86.24;96774.44;1795647;79;21178;-84
2021/04/16 13:29:23;;;;;;;5.20;2.92;;;;;;;2.34;86.29;96777.34;1812150;78;21150;-84
2021/04/16 13:31:50;;;;;;;3.70;2.42;;;;;;;2.35;86.21;96775.52;1777936;79;21202;-84
2021/04/16 13:34:19;;;;;;;4.00;2.98;;;;;;;2.42;86.21;96778.06;1785942;79;21140;-84
2021/04/16 13:36:48;;;;;;;4.62;3.02;;;;;;;2.56;86.33;96771.63;1779567;79;21177;-84
2021/04/16 13:39:16;;;;;;;3.47;2.08;;;;;;;2.65;86.16;96774.19;1790889;79;21087;-84
2021/04/16 13:41:43;;;;;;;3.72;2.85;;;;;;;2.71;85.74;96768.59;1793916;79;21200;-84
2021/04/16 13:44:10;;;;;;;5.70;2.58;;;;;;;2.65;85.56;96771.58;1798035;79;21116;-84
2021/04/16 13:46:40;;;;;;;4.62;2.95;;;;;;;2.67;85.61;96787.37;1777098;80;21148;-84
2021/04/16 13:49:11;;;;;;;3.40;2.30;;;;;;;2.60;85.55;96778.00;1785928;79;21316;-84
2021/04/16 13:51:38;;;;;;;3.60;2.37;;;;;;;2.52;85.46;96773.87;1783209;79;21182;-84
2021/04/16 13:54:08;;;;;;;4.78;2.80;;;;;;;2.44;85.79;96779.94;1769221;79;21139;-84
2021/04/16 13:56:39;;;;;;;5.87;3.40;;;;;;;2.38;85.86;96777.17;1789988;79;21113;-84
2021/04/16 13:59:06;;;;;;;5.30;3.42;;;;;;;2.38;85.95;96782.41;1777554;80;21187;-84
2021/04/16 14:01:34;;;;;;;3.77;2.80;;;;;;;2.40;86.05;96782.21;1780468;79;21137;-84
2021/04/16 14:04:05;;;;;;;5.80;2.67;;;;;;;2.40;86.06;96784.03;1775713;80;21149;-84
2021/04/16 14:06:39;;;;;;;3.10;2.30;;;;;;;2.43;86.00;96780.97;1793686;79;21103;-84
2021/04/16 14:09:10;;;;;;;3.20;2.20;;;;;;;2.43;86.11;96787.50;1778451;79;21129;-84
2021/04/16 14:11:38;;;;;;;4.10;2.87;;;;;;;2.43;86.05;96786.20;1774840;79;21115;-85
2021/04/16 14:14:14;;;;;;;4.90;3.62;;;;;;;2.50;86.04;96784.27;1785565;79;21481;-84
2021/04/16 14:16:44;;;;;;;6.47;3.72;;;;;;;2.53;85.80;96791.67;1779526;79;21487;-84
2021/04/16 14:19:22;;;;;;;5.78;3.20;;;;;;;2.48;85.80;96786.32;1779728;80;21187;-84
2021/04/16 14:21:54;;;;;;;6.35;3.90;;;;;;;2.46;85.86;96786.55;1794126;79;21470;-84
2021/04/16 14:24:22;;;;;;;5.58;3.47;;;;;;;2.40;85.92;96790.06;1785546;80;21103;-84
2021/04/16 14:26:53;;;;;;;5.75;3.40;;;;;;;2.35;86.02;96789.91;1792095;79;21177;-84
2021/04/16 14:29:20;;;;;;;5.15;3.30;;;;;;;2.30;86.09;96790.58;1777052;80;21157;-84
2021/04/16 14:31:48;;;;;;;3.50;2.40;;;;;;;2.34;86.27;96793.03;1799847;79;21153;-84